createdAt,value
2019-05-17T00:00:57.472Z,11.77
2019-05-17T00:01:57.719Z,11.69
2019-05-17T00:02:57.223Z,11.70
2019-05-17T00:03:57.035Z,11.66
2019-05-17T00:04:57.040Z,11.74
2019-05-17T00:05:57.176Z,11.74
2019-05-17T00:06:57.177Z,11.74
2019-05-17T00:07:57.057Z,11.74
2019-05-17T00:08:57.071Z,11.72
2019-05-17T00:09:57.249Z,11.79
2019-05-17T00:10:57.181Z,11.75
2019-05-17T00:11:57.084Z,11.66
2019-05-17T00:12:57.086Z,11.66
2019-05-17T00:13:57.156Z,11.72
2019-05-17T00:14:57.110Z,11.77
2019-05-17T00:15:57.115Z,11.79
2019-05-17T00:16:57.411Z,11.69
2019-05-17T00:17:57.204Z,11.67
2019-05-17T00:18:57.124Z,11.77
2019-05-17T00:19:57.200Z,11.72
2019-05-17T00:20:57.170Z,11.69
2019-05-17T00:21:57.156Z,11.77
2019-05-17T00:22:57.469Z,11.72
2019-05-17T00:23:57.340Z,11.72
2019-05-17T00:24:57.165Z,11.74
2019-05-17T00:25:57.176Z,11.70
2019-05-17T00:26:58.629Z,11.67
2019-05-17T00:27:57.200Z,11.78
2019-05-17T00:28:57.192Z,11.67
2019-05-17T00:29:57.276Z,11.69
2019-05-17T00:30:57.288Z,11.70
2019-05-17T00:31:57.214Z,11.72
2019-05-17T00:32:57.218Z,11.75
2019-05-17T00:33:57.224Z,11.72
2019-05-17T00:34:57.232Z,11.72
2019-05-17T00:35:57.260Z,11.70
2019-05-17T00:36:57.486Z,11.78
2019-05-17T00:37:57.254Z,11.75
2019-05-17T00:38:57.259Z,11.70
2019-05-17T00:39:57.267Z,11.70
2019-05-17T00:40:57.275Z,11.66
2019-05-17T00:41:57.431Z,11.72
2019-05-17T00:42:57.288Z,11.64
2019-05-17T00:43:57.298Z,11.64
2019-05-17T00:44:57.299Z,11.67
2019-05-17T00:45:57.554Z,11.70
2019-05-17T00:46:58.827Z,11.67
2019-05-17T00:47:57.372Z,11.72
2019-05-17T00:48:57.426Z,11.70
2019-05-17T00:49:57.333Z,11.77
2019-05-17T00:51:02.031Z,11.72
2019-05-17T00:51:57.345Z,11.78
2019-05-17T00:52:57.353Z,11.78
2019-05-17T00:53:57.365Z,11.79
2019-05-17T00:54:57.369Z,11.72
2019-05-17T00:55:57.458Z,11.67
2019-05-17T00:56:57.374Z,11.74
2019-05-17T00:57:57.375Z,11.74
2019-05-17T00:58:57.386Z,11.69
2019-05-17T00:59:57.393Z,11.74
2019-05-17T01:00:57.425Z,11.74
2019-05-17T01:01:57.407Z,11.70
2019-05-17T01:02:57.462Z,11.70
2019-05-17T01:03:57.416Z,11.70
2019-05-17T01:04:57.426Z,11.70
2019-05-17T01:06:57.444Z,11.67
2019-05-17T01:07:57.445Z,11.75
2019-05-17T01:09:01.905Z,11.74
2019-05-17T01:09:57.459Z,11.69
2019-05-17T01:10:57.467Z,11.70
2019-05-17T01:11:57.470Z,11.66
2019-05-17T01:12:57.665Z,11.74
2019-05-17T01:13:58.737Z,11.69
2019-05-17T01:14:58.287Z,11.75
2019-05-17T01:15:57.503Z,11.66
2019-05-17T01:16:57.517Z,11.78
2019-05-17T01:17:57.509Z,11.75
2019-05-17T01:18:57.518Z,11.79
2019-05-17T01:19:57.568Z,11.78
2019-05-17T01:20:57.531Z,11.67
2019-05-17T01:21:57.533Z,11.70
2019-05-17T01:22:57.555Z,11.70
2019-05-17T01:23:57.561Z,11.70
2019-05-17T01:24:57.598Z,11.70
2019-05-17T01:25:57.557Z,11.66
2019-05-17T01:26:57.569Z,11.70
2019-05-17T01:27:57.576Z,11.62
2019-05-17T01:28:57.592Z,11.62
2019-05-17T01:29:57.593Z,11.63
2019-05-17T01:30:57.597Z,11.59
2019-05-17T01:31:57.610Z,11.64
2019-05-17T01:32:57.598Z,11.69
2019-05-17T01:33:57.615Z,11.63
2019-05-17T01:34:57.619Z,11.60
2019-05-17T01:35:57.638Z,11.67
2019-05-17T01:36:57.634Z,11.59
2019-05-17T01:37:57.641Z,11.67
2019-05-17T01:38:57.824Z,11.59
2019-05-17T01:39:57.652Z,11.66
2019-05-17T01:40:57.668Z,11.66
2019-05-17T01:41:57.670Z,11.66
2019-05-17T01:42:58.168Z,11.56
2019-05-17T01:43:57.678Z,11.49
2019-05-17T01:44:57.686Z,11.59
2019-05-17T01:45:57.694Z,11.57
2019-05-17T01:46:57.695Z,11.60
2019-05-17T01:47:57.702Z,11.51
2019-05-17T01:48:57.884Z,11.64
2019-05-17T01:49:57.769Z,11.66
2019-05-17T01:50:57.729Z,11.66
2019-05-17T01:51:57.775Z,11.60
2019-05-17T01:52:57.727Z,11.53
2019-05-17T01:53:57.748Z,11.54
2019-05-17T01:54:57.746Z,11.53
2019-05-17T01:55:57.756Z,11.51
2019-05-17T01:56:57.761Z,11.49
2019-05-17T01:57:57.765Z,11.51
2019-05-17T01:58:57.768Z,11.49
2019-05-17T01:59:57.779Z,11.49
2019-05-17T02:00:57.787Z,11.51
2019-05-17T02:01:57.791Z,11.53
2019-05-17T02:02:57.879Z,11.53
2019-05-17T02:03:57.802Z,11.53
2019-05-17T02:04:57.813Z,11.49
2019-05-17T02:05:57.816Z,11.49
2019-05-17T02:06:57.833Z,11.44
2019-05-17T02:07:57.820Z,11.48
2019-05-17T02:08:57.841Z,11.41
2019-05-17T02:09:57.845Z,11.45
2019-05-17T02:10:57.849Z,11.42
2019-05-17T02:11:57.934Z,11.48
2019-05-17T02:12:57.859Z,11.51
2019-05-17T02:13:57.867Z,11.48
2019-05-17T02:14:57.871Z,11.41
2019-05-17T02:15:57.889Z,11.44
2019-05-17T02:16:57.892Z,11.42
2019-05-17T02:17:57.893Z,11.41
2019-05-17T02:18:57.984Z,11.39
2019-05-17T02:19:58.060Z,11.46
2019-05-17T02:20:58.104Z,11.42
2019-05-17T02:21:58.163Z,11.44
2019-05-17T02:22:57.975Z,11.42
2019-05-17T02:23:58.078Z,11.48
2019-05-17T02:24:57.998Z,11.48
2019-05-17T02:25:58.164Z,11.51
2019-05-17T02:26:57.948Z,11.41
2019-05-17T02:27:57.949Z,11.45
2019-05-17T02:28:57.961Z,11.46
2019-05-17T02:29:57.966Z,11.44
2019-05-17T02:30:57.982Z,11.42
2019-05-17T02:31:57.985Z,11.44
2019-05-17T02:32:57.987Z,11.45
2019-05-17T02:33:57.996Z,11.42
2019-05-17T02:34:58.006Z,11.44
2019-05-17T02:35:58.008Z,11.41
2019-05-17T02:36:58.019Z,11.38
2019-05-17T02:37:58.019Z,11.33
2019-05-17T02:38:58.024Z,11.35
2019-05-17T02:40:03.075Z,11.33
2019-05-17T02:40:58.036Z,11.28
2019-05-17T02:41:58.050Z,11.28
2019-05-17T02:42:58.063Z,11.30
2019-05-17T02:43:58.066Z,11.17
2019-05-17T02:44:58.066Z,11.13
2019-05-17T02:45:58.069Z,11.17
2019-05-17T02:46:58.079Z,11.17
2019-05-17T02:47:58.083Z,11.13
2019-05-17T02:48:58.083Z,11.21
2019-05-17T02:49:58.092Z,11.08
2019-05-17T02:50:58.100Z,11.09
2019-05-17T02:51:58.110Z,11.05
2019-05-17T02:52:58.110Z,11.13
2019-05-17T02:53:58.117Z,11.05
2019-05-17T02:54:58.132Z,11.06
2019-05-17T02:55:58.133Z,11.12
2019-05-17T02:56:58.144Z,11.05
2019-05-17T02:57:58.152Z,10.99
2019-05-17T02:58:58.154Z,10.99
2019-05-17T02:59:58.158Z,11.03
2019-05-17T03:00:58.164Z,11.02
2019-05-17T04:23:53.749Z,11.21
2019-05-17T04:27:53.392Z,11.19
2019-05-17T04:29:53.148Z,11.27
2019-05-17T04:30:53.866Z,11.24
2019-05-17T04:31:55.336Z,11.19
2019-05-17T04:32:56.834Z,11.19
2019-05-17T04:33:49.839Z,11.20
2019-05-17T04:34:53.351Z,11.19
2019-05-17T04:36:52.100Z,11.16
2019-05-17T04:37:48.858Z,11.28
2019-05-17T04:38:48.335Z,11.21
2019-05-17T04:39:52.414Z,11.23
2019-05-17T04:40:53.641Z,11.26
2019-05-17T04:41:54.808Z,11.27
2019-05-17T04:42:54.854Z,11.35
2019-05-17T04:43:52.929Z,11.31
2019-05-17T04:44:52.636Z,11.30
2019-05-17T04:45:53.248Z,11.36
2019-05-17T04:46:48.859Z,11.31
2019-05-17T04:47:52.684Z,11.39
2019-05-17T04:48:53.456Z,11.42
2019-05-17T04:49:53.312Z,11.48
2019-05-17T04:50:53.520Z,11.48
2019-05-17T04:51:52.484Z,11.56
2019-05-17T04:52:53.341Z,11.62
2019-05-17T04:53:48.859Z,11.66
2019-05-17T04:54:53.357Z,11.60
2019-05-17T04:55:49.347Z,11.57
2019-05-17T04:56:54.862Z,11.64
2019-05-17T04:57:53.051Z,11.60
2019-05-17T04:58:50.229Z,11.70
2019-05-17T04:59:52.184Z,11.67
2019-05-17T05:00:48.344Z,11.62
2019-05-17T05:01:48.862Z,11.74
2019-05-17T05:02:47.852Z,11.72
2019-05-17T05:03:48.880Z,11.74
2019-05-17T05:04:48.366Z,11.82
2019-05-17T05:05:53.172Z,11.74
2019-05-17T05:06:52.339Z,11.78
2019-05-17T05:07:47.855Z,11.81
2019-05-17T05:08:48.865Z,11.82
2019-05-17T05:09:47.845Z,11.87
2019-05-17T05:10:47.864Z,11.82
2019-05-17T05:11:57.023Z,11.88
2019-05-17T05:12:48.867Z,11.94
2019-05-17T05:13:47.874Z,12.04
2019-05-17T05:14:47.885Z,12.04
2019-05-17T05:15:47.842Z,12.18
2019-05-17T05:16:47.913Z,12.21
2019-05-17T05:17:47.857Z,12.29
2019-05-17T05:18:47.226Z,12.26
2019-05-17T05:19:47.862Z,12.30
2019-05-17T05:20:47.248Z,12.37
2019-05-17T05:21:47.261Z,12.43
2019-05-17T05:22:47.257Z,12.37
2019-05-17T05:23:47.275Z,12.46
2019-05-17T05:24:47.278Z,12.49
2019-05-17T05:25:47.283Z,12.46
2019-05-17T05:26:47.300Z,12.37
2019-05-17T05:27:47.298Z,12.43
2019-05-17T05:28:49.623Z,12.34
2019-05-17T05:29:47.311Z,12.43
2019-05-17T05:30:47.317Z,12.37
2019-05-17T05:31:47.330Z,12.38
2019-05-17T05:32:47.340Z,12.34
2019-05-17T05:33:47.342Z,12.30
2019-05-17T05:34:47.355Z,12.30
2019-05-17T05:35:47.360Z,12.26
2019-05-17T05:36:47.358Z,12.19
2019-05-17T05:37:47.369Z,12.07
2019-05-17T05:38:47.375Z,12.12
2019-05-17T05:39:47.382Z,12.12
2019-05-17T05:40:47.397Z,11.96
2019-05-17T05:41:47.400Z,12.03
2019-05-17T05:42:47.408Z,11.96
2019-05-17T05:43:47.418Z,12.00
2019-05-17T05:44:47.425Z,12.13
2019-05-17T05:45:47.430Z,12.15
2019-05-17T05:46:47.442Z,12.25
2019-05-17T05:47:47.449Z,12.23
2019-05-17T05:48:47.452Z,12.21
2019-05-17T05:49:47.462Z,12.33
2019-05-17T05:50:47.473Z,12.23
2019-05-17T05:51:47.466Z,12.30
2019-05-17T05:52:47.482Z,12.30
2019-05-17T05:53:47.491Z,12.29
2019-05-17T05:54:47.497Z,12.33
2019-05-17T05:55:47.507Z,12.34
2019-05-17T05:56:47.510Z,12.36
2019-05-17T05:57:47.519Z,12.43
2019-05-17T05:58:47.527Z,12.49
2019-05-17T05:59:47.538Z,12.44
2019-05-17T06:00:47.545Z,12.61
2019-05-17T06:01:47.553Z,12.63
2019-05-17T06:02:47.556Z,12.70
2019-05-17T06:03:47.557Z,12.63
2019-05-17T06:04:47.580Z,12.70
2019-05-17T06:05:47.582Z,12.51
2019-05-17T06:06:47.587Z,12.55
2019-05-17T06:07:47.598Z,12.66
2019-05-17T06:08:47.601Z,12.51
2019-05-17T06:09:47.618Z,12.56
2019-05-17T06:10:47.617Z,12.71
2019-05-17T06:11:47.628Z,12.66
2019-05-17T06:12:47.645Z,12.66
2019-05-17T06:13:47.651Z,12.74
2019-05-17T06:14:47.658Z,12.77
2019-05-17T06:15:47.660Z,12.77
2019-05-17T06:16:47.838Z,12.88
2019-05-17T06:17:47.672Z,12.91
2019-05-17T06:18:47.697Z,12.94
2019-05-17T06:19:47.693Z,12.88
2019-05-17T06:20:47.695Z,12.95
2019-05-17T06:21:47.707Z,13.10
2019-05-17T06:22:47.715Z,13.10
2019-05-17T06:23:47.725Z,13.07
2019-05-17T06:24:47.732Z,13.24
2019-05-17T06:25:47.746Z,13.19
2019-05-17T06:26:47.763Z,13.25
2019-05-17T06:27:47.760Z,13.39
2019-05-17T06:28:47.767Z,13.29
2019-05-17T06:29:47.783Z,13.22
2019-05-17T06:30:47.787Z,13.39
2019-05-17T06:31:47.797Z,13.35
2019-05-17T06:32:47.834Z,13.43
2019-05-17T06:33:47.819Z,13.29
2019-05-17T06:34:47.835Z,13.38
2019-05-17T06:35:47.848Z,13.35
2019-05-17T06:36:47.843Z,13.35
2019-05-17T06:37:47.853Z,13.39
2019-05-17T06:38:47.856Z,13.35
2019-05-17T06:39:47.931Z,13.32
2019-05-17T06:40:47.875Z,13.39
2019-05-17T06:41:47.889Z,13.31
2019-05-17T06:42:47.893Z,13.31
2019-05-17T06:43:47.897Z,13.35
2019-05-17T06:44:47.917Z,13.35
2019-05-17T06:45:47.924Z,13.28
2019-05-17T06:46:47.927Z,13.24
2019-05-17T06:47:47.932Z,13.35
2019-05-17T06:48:47.938Z,13.36
2019-05-17T06:49:50.516Z,13.28
2019-05-17T06:50:47.960Z,13.27
2019-05-17T06:51:48.068Z,13.25
2019-05-17T06:52:47.976Z,13.25
2019-05-17T06:53:47.996Z,13.25
2019-05-17T06:54:47.993Z,13.14
2019-05-17T06:55:47.997Z,13.24
2019-05-17T06:56:48.022Z,13.21
2019-05-17T06:57:48.035Z,13.19
2019-05-17T06:58:48.028Z,13.24
2019-05-17T06:59:48.038Z,13.27
2019-05-17T07:00:49.774Z,13.29
2019-05-17T07:01:50.271Z,13.35
2019-05-17T07:02:49.803Z,13.27
2019-05-17T07:03:49.527Z,13.32
2019-05-17T07:04:48.117Z,13.31
2019-05-17T07:05:50.098Z,13.36
2019-05-17T07:06:49.529Z,13.54
2019-05-17T07:07:49.821Z,13.55
2019-05-17T07:08:49.567Z,13.54
2019-05-17T07:09:49.660Z,13.44
2019-05-17T07:10:50.125Z,13.39
2019-05-17T07:11:48.184Z,13.22
2019-05-17T07:12:55.963Z,13.24
2019-05-17T07:13:49.620Z,13.19
2019-05-17T07:14:50.553Z,13.17
2019-05-17T07:15:50.906Z,13.21
2019-05-17T07:16:50.083Z,13.21
2019-05-17T07:17:50.278Z,13.27
2019-05-17T07:18:49.422Z,13.32
2019-05-17T07:19:50.586Z,13.31
2019-05-17T07:20:50.211Z,13.38
2019-05-17T07:21:49.455Z,13.44
2019-05-17T07:22:50.543Z,13.39
2019-05-17T07:23:49.894Z,13.38
2019-05-17T07:24:50.258Z,13.35
2019-05-17T07:25:50.278Z,13.29
2019-05-17T07:26:49.800Z,13.38
2019-05-17T07:27:50.324Z,13.36
2019-05-17T07:28:49.806Z,13.46
2019-05-17T07:29:49.703Z,13.53
2019-05-17T07:30:50.368Z,13.65
2019-05-17T07:31:49.784Z,13.81
2019-05-17T07:32:49.803Z,13.94
2019-05-17T07:33:50.367Z,13.96
2019-05-17T07:34:50.186Z,14.08
2019-05-17T07:35:50.211Z,14.21
2019-05-17T07:36:50.250Z,14.24
2019-05-17T07:37:50.150Z,14.39
2019-05-17T07:38:50.514Z,14.31
2019-05-17T07:40:00.487Z,14.34
2019-05-17T07:40:50.178Z,14.20
2019-05-17T07:41:49.405Z,14.08
2019-05-17T07:42:50.079Z,14.09
2019-05-17T07:43:49.788Z,14.17
2019-05-17T07:44:49.653Z,14.17
2019-05-17T07:45:49.645Z,14.26
2019-05-17T07:46:51.698Z,14.17
2019-05-17T07:47:49.439Z,14.27
2019-05-17T07:48:49.744Z,14.24
2019-05-17T07:49:49.454Z,14.29
2019-05-17T07:50:50.438Z,14.34
2019-05-17T07:51:50.267Z,14.27
2019-05-17T07:52:49.972Z,14.31
2019-05-17T07:53:49.538Z,14.36
2019-05-17T07:54:50.845Z,14.29
2019-05-17T07:55:50.544Z,14.20
2019-05-17T07:56:50.542Z,14.29
2019-05-17T07:57:49.596Z,14.45
2019-05-17T07:58:49.494Z,14.61
2019-05-17T07:59:50.777Z,14.79
2019-05-17T08:00:51.266Z,14.85
2019-05-17T08:01:50.295Z,14.87
2019-05-17T08:02:50.496Z,14.86
2019-05-17T08:03:50.099Z,14.91
2019-05-17T08:04:50.134Z,14.75
2019-05-17T08:05:50.591Z,14.61
2019-05-17T08:06:50.491Z,14.52
2019-05-17T08:07:50.012Z,14.60
2019-05-17T08:08:50.151Z,14.57
2019-05-17T08:09:50.696Z,14.57
2019-05-17T08:10:50.954Z,14.64
2019-05-17T08:11:50.183Z,14.59
2019-05-17T08:12:49.768Z,14.59
2019-05-17T08:13:50.438Z,14.59
2019-05-17T08:14:50.262Z,14.53
2019-05-17T08:15:50.180Z,14.42
2019-05-17T08:16:50.178Z,14.44
2019-05-17T08:17:50.227Z,14.49
2019-05-17T08:18:49.659Z,14.39
2019-05-17T08:19:49.837Z,14.42
2019-05-17T08:20:50.145Z,14.39
2019-05-17T08:21:50.221Z,14.48
2019-05-17T08:22:50.234Z,14.52
2019-05-17T08:23:50.542Z,14.41
2019-05-17T08:24:49.401Z,14.24
2019-05-17T08:25:53.743Z,14.08
2019-05-17T08:26:50.262Z,14.01
2019-05-17T08:27:50.373Z,13.93
2019-05-17T08:28:49.940Z,13.88
2019-05-17T08:29:49.884Z,13.69
2019-05-17T08:30:50.132Z,13.79
2019-05-17T08:31:49.687Z,13.71
2019-05-17T08:32:50.470Z,13.61
2019-05-17T08:33:49.797Z,13.63
2019-05-17T08:34:51.336Z,13.53
2019-05-17T08:35:49.477Z,13.44
2019-05-17T08:36:49.885Z,13.48
2019-05-17T08:37:49.881Z,13.47
2019-05-17T08:38:50.165Z,13.50
2019-05-17T08:39:50.500Z,13.44
2019-05-17T08:40:50.995Z,13.44
2019-05-17T08:41:49.743Z,13.38
2019-05-17T08:42:49.877Z,13.32
2019-05-17T08:43:51.137Z,13.35
2019-05-17T08:44:49.817Z,13.36
2019-05-17T08:45:50.198Z,13.32
2019-05-17T08:46:50.099Z,13.35
2019-05-17T08:47:50.023Z,13.43
2019-05-17T08:48:49.487Z,13.66
2019-05-17T08:49:49.666Z,13.63
2019-05-17T08:50:49.505Z,13.68
2019-05-17T08:51:50.030Z,13.80
2019-05-17T08:52:49.469Z,13.86
2019-05-17T08:53:49.340Z,14.09
2019-05-17T08:54:49.585Z,14.06
2019-05-17T08:55:50.047Z,14.06
2019-05-17T08:56:50.377Z,14.08
2019-05-17T08:57:50.054Z,14.11
2019-05-17T08:58:49.819Z,14.13
2019-05-17T08:59:49.750Z,14.16
2019-05-17T09:00:50.473Z,14.09
2019-05-17T09:01:50.570Z,14.11
2019-05-17T09:02:50.026Z,14.09
2019-05-17T09:03:50.596Z,14.09
2019-05-17T09:04:49.778Z,14.08
2019-05-17T09:05:52.595Z,14.05
2019-05-17T09:06:50.435Z,14.06
2019-05-17T09:07:49.389Z,14.16
2019-05-17T09:08:50.015Z,14.06
2019-05-17T09:09:50.109Z,14.13
2019-05-17T09:10:50.452Z,14.09
2019-05-17T09:11:50.137Z,14.12
2019-05-17T09:12:50.225Z,13.98
2019-05-17T09:13:58.002Z,13.93
2019-05-17T09:14:49.661Z,14.13
2019-05-17T09:15:49.555Z,14.31
2019-05-17T09:16:50.474Z,14.54
2019-05-17T09:17:49.863Z,14.56
2019-05-17T09:18:50.182Z,14.59
2019-05-17T09:19:51.002Z,14.64
2019-05-17T09:20:49.610Z,14.69
2019-05-17T09:21:50.334Z,14.83
2019-05-17T09:22:51.026Z,14.85
2019-05-17T09:23:50.371Z,14.87
2019-05-17T09:24:49.970Z,14.78
2019-05-17T09:25:50.182Z,14.83
2019-05-17T09:26:49.354Z,14.95
2019-05-17T09:27:50.100Z,15.04
2019-05-17T09:28:49.924Z,15.11
2019-05-17T09:29:49.746Z,15.05
2019-05-17T09:30:50.748Z,15.03
2019-05-17T09:31:50.483Z,15.12
2019-05-17T09:32:50.380Z,15.05
2019-05-17T09:33:49.710Z,15.13
2019-05-17T09:34:49.805Z,15.09
2019-05-17T09:35:49.987Z,15.09
2019-05-17T09:36:49.711Z,15.13
2019-05-17T09:37:49.956Z,14.91
2019-05-17T09:38:49.547Z,14.87
2019-05-17T09:39:49.418Z,14.91
2019-05-17T09:40:50.534Z,14.85
2019-05-17T09:41:50.314Z,14.82
2019-05-17T09:42:49.955Z,15.00
2019-05-17T09:43:49.763Z,14.90
2019-05-17T09:44:49.753Z,14.95
2019-05-17T09:45:50.698Z,14.91
2019-05-17T09:46:50.405Z,15.18
2019-05-17T09:47:50.532Z,15.49
2019-05-17T09:48:50.470Z,15.71
2019-05-17T09:50:50.458Z,16.29
2019-05-17T09:51:49.738Z,16.33
2019-05-17T09:52:49.662Z,16.32
2019-05-17T09:53:49.736Z,16.33
2019-05-17T09:54:50.493Z,16.47
2019-05-17T09:55:49.921Z,16.42
2019-05-17T09:56:49.780Z,16.36
2019-05-17T09:57:49.825Z,16.33
2019-05-17T09:58:49.633Z,16.08
2019-05-17T09:59:49.694Z,15.91
2019-05-17T10:00:49.648Z,16.01
2019-05-17T10:01:49.594Z,15.98
2019-05-17T10:02:50.770Z,16.01
2019-05-17T10:03:50.650Z,15.92
2019-05-17T10:04:50.241Z,15.99
2019-05-17T10:06:51.359Z,15.76
2019-05-17T10:07:50.623Z,15.78
2019-05-17T10:08:49.704Z,15.68
2019-05-17T10:09:50.216Z,15.68
2019-05-17T10:11:04.170Z,15.62
2019-05-17T10:11:49.670Z,15.53
2019-05-17T10:12:49.963Z,15.58
2019-05-17T10:13:49.987Z,15.46
2019-05-17T10:14:49.948Z,15.40
2019-05-17T10:15:50.160Z,15.34
2019-05-17T10:16:49.712Z,15.37
2019-05-17T10:17:49.717Z,15.37
2019-05-17T10:18:49.731Z,15.31
2019-05-17T10:19:49.744Z,15.20
2019-05-17T10:20:50.648Z,15.31
2019-05-17T10:21:49.763Z,15.38
2019-05-17T10:22:50.375Z,15.43
2019-05-17T10:23:49.991Z,15.48
2019-05-17T10:24:49.809Z,15.60
2019-05-17T10:25:49.785Z,15.76
2019-05-17T10:26:49.960Z,15.59
2019-05-17T10:27:49.946Z,15.64
2019-05-17T10:28:51.654Z,15.71
2019-05-17T10:29:50.226Z,15.58
2019-05-17T10:30:52.269Z,15.56
2019-05-17T10:31:50.471Z,15.52
2019-05-17T10:32:50.483Z,15.44
2019-05-17T10:33:49.852Z,15.51
2019-05-17T10:34:49.874Z,15.68
2019-05-17T10:35:49.871Z,15.58
2019-05-17T10:36:50.650Z,15.73
2019-05-17T10:37:50.577Z,15.70
2019-05-17T10:38:50.306Z,15.76
2019-05-17T10:39:50.344Z,15.74
2019-05-17T10:40:50.226Z,15.85
2019-05-17T10:41:50.152Z,15.95
2019-05-17T10:42:50.152Z,15.85
2019-05-17T10:43:50.251Z,15.88
2019-05-17T10:44:51.415Z,15.85
2019-05-17T10:45:49.969Z,15.92
2019-05-17T10:46:49.966Z,15.96
2019-05-17T10:47:50.415Z,15.92
2019-05-17T10:48:50.220Z,16.03
2019-05-17T10:49:50.011Z,15.91
2019-05-17T10:50:50.019Z,15.91
2019-05-17T10:51:50.023Z,15.81
2019-05-17T10:52:50.046Z,15.78
2019-05-17T10:53:51.343Z,15.58
2019-05-17T10:54:50.062Z,15.31
2019-05-17T10:55:50.061Z,15.27
2019-05-17T10:56:50.306Z,15.16
2019-05-17T10:57:50.213Z,15.00
2019-05-17T10:58:50.125Z,14.98
2019-05-17T10:59:50.100Z,14.85
2019-05-17T11:00:50.301Z,14.93
2019-05-17T11:01:50.303Z,14.91
2019-05-17T11:02:50.483Z,14.97
2019-05-17T11:03:50.392Z,14.83
2019-05-17T11:04:50.691Z,14.93
2019-05-17T11:05:50.416Z,14.93
2019-05-17T11:06:50.234Z,14.97
2019-05-17T11:07:50.674Z,15.01
2019-05-17T11:08:50.309Z,15.16
2019-05-17T11:09:50.849Z,15.31
2019-05-17T11:10:50.361Z,15.40
2019-05-17T11:11:50.214Z,15.46
2019-05-17T11:12:50.222Z,15.46
2019-05-17T11:13:52.890Z,15.25
2019-05-17T11:15:01.069Z,15.11
2019-05-17T11:15:50.244Z,15.07
2019-05-17T11:16:50.256Z,15.12
2019-05-17T11:17:50.260Z,15.05
2019-05-17T11:18:50.268Z,15.11
2019-05-17T11:19:50.278Z,15.01
2019-05-17T11:20:50.285Z,15.04
2019-05-17T11:21:50.307Z,15.04
2019-05-17T11:22:50.310Z,15.13
2019-05-17T11:23:50.313Z,15.22
2019-05-17T11:24:50.319Z,15.03
2019-05-17T11:25:50.328Z,14.94
2019-05-17T11:26:50.343Z,14.94
2019-05-17T11:27:50.352Z,14.95
2019-05-17T11:28:50.361Z,15.01
2019-05-17T11:29:50.372Z,14.97
2019-05-17T11:30:50.375Z,15.03
2019-05-17T11:31:50.386Z,14.97
2019-05-17T11:32:50.390Z,14.79
2019-05-17T11:33:50.406Z,14.82
2019-05-17T11:34:50.419Z,14.82
2019-05-17T11:35:50.426Z,14.78
2019-05-17T11:36:50.444Z,14.80
2019-05-17T11:37:50.435Z,14.75
2019-05-17T11:38:50.449Z,14.67
2019-05-17T11:39:50.454Z,14.64
2019-05-17T11:40:50.459Z,14.44
2019-05-17T11:41:50.478Z,14.38
2019-05-17T11:42:50.488Z,14.30
2019-05-17T11:43:50.493Z,14.35
2019-05-17T11:44:50.502Z,14.39
2019-05-17T11:45:50.501Z,14.46
2019-05-17T11:46:50.510Z,14.35
2019-05-17T11:47:50.537Z,14.53
2019-05-17T11:48:50.559Z,14.46
2019-05-17T11:49:50.544Z,14.64
2019-05-17T11:50:50.550Z,14.59
2019-05-17T11:51:50.566Z,14.71
2019-05-17T11:52:50.578Z,14.67
2019-05-17T11:53:50.587Z,14.61
2019-05-17T11:54:50.596Z,14.60
2019-05-17T11:55:50.773Z,14.63
2019-05-17T11:56:50.594Z,14.67
2019-05-17T11:57:50.616Z,14.64
2019-05-17T11:58:50.633Z,14.54
2019-05-17T11:59:50.623Z,14.82
2019-05-17T12:00:50.635Z,14.83
2019-05-17T12:01:50.647Z,14.86
2019-05-17T12:02:50.652Z,14.87
2019-05-17T12:03:50.664Z,14.90
2019-05-17T12:04:50.699Z,14.91
2019-05-17T12:05:50.672Z,14.94
2019-05-17T12:06:50.680Z,14.93
2019-05-17T12:07:50.689Z,14.90
2019-05-17T12:08:50.696Z,14.86
2019-05-17T12:09:50.701Z,14.78
2019-05-17T12:10:50.865Z,14.67
2019-05-17T12:11:50.728Z,14.61
2019-05-17T12:12:50.739Z,14.63
2019-05-17T12:13:50.746Z,14.64
2019-05-17T12:14:50.752Z,14.64
2019-05-17T12:15:50.767Z,14.72
2019-05-17T12:16:50.777Z,14.87
2019-05-17T12:17:50.771Z,14.93
2019-05-17T12:18:50.779Z,15.04
2019-05-17T12:19:50.797Z,15.12
2019-05-17T12:20:50.801Z,15.01
2019-05-17T12:21:50.813Z,15.23
2019-05-17T12:22:50.813Z,15.40
2019-05-17T12:23:50.929Z,15.56
2019-05-17T12:24:50.840Z,15.49
2019-05-17T12:25:50.853Z,15.67
2019-05-17T12:26:50.853Z,15.73
2019-05-17T12:27:50.861Z,15.78
2019-05-17T12:28:50.879Z,16.04
2019-05-17T12:29:50.892Z,16.03
2019-05-17T12:30:50.892Z,16.07
2019-05-17T12:31:50.897Z,16.14
2019-05-17T12:32:50.907Z,16.26
2019-05-17T12:33:50.908Z,16.52
2019-05-17T12:34:50.925Z,16.50
2019-05-17T12:35:50.940Z,16.55
2019-05-17T12:36:50.951Z,16.66
2019-05-17T12:37:50.959Z,16.52
2019-05-17T12:38:50.963Z,16.45
2019-05-17T12:39:50.977Z,16.57
2019-05-17T12:40:50.991Z,16.62
2019-05-17T12:41:51.022Z,16.47
2019-05-17T12:42:51.011Z,16.50
2019-05-17T12:43:51.022Z,16.32
2019-05-17T12:44:51.024Z,16.23
2019-05-17T12:46:00.007Z,16.42
2019-05-17T12:46:51.040Z,16.44
2019-05-17T12:47:51.063Z,16.22
2019-05-17T12:48:51.062Z,16.14
2019-05-17T12:49:51.087Z,16.23
2019-05-17T12:50:51.086Z,16.23
2019-05-17T12:51:51.095Z,16.23
2019-05-17T12:52:51.140Z,16.36
2019-05-17T12:53:51.115Z,16.50
2019-05-17T12:54:51.117Z,16.50
2019-05-17T12:55:51.131Z,16.65
2019-05-17T12:56:51.158Z,16.75
2019-05-17T12:57:51.144Z,16.87
2019-05-17T12:58:51.159Z,16.90
2019-05-17T12:59:51.165Z,16.88
2019-05-17T13:00:51.181Z,16.75
2019-05-17T13:01:51.203Z,16.81
2019-05-17T13:02:51.207Z,16.81
2019-05-17T13:03:51.222Z,16.87
2019-05-17T13:04:51.218Z,16.78
2019-05-17T13:05:51.263Z,16.87
2019-05-17T13:06:51.301Z,16.92
2019-05-17T13:07:51.260Z,17.20
2019-05-17T13:08:51.277Z,17.21
2019-05-17T13:09:51.274Z,17.39
2019-05-17T13:10:51.276Z,17.40
2019-05-17T13:11:51.281Z,17.38
2019-05-17T13:12:51.298Z,17.38
2019-05-17T13:13:51.365Z,17.49
2019-05-17T13:14:51.323Z,17.46
2019-05-17T13:15:51.336Z,17.77
2019-05-17T13:16:51.392Z,18.04
2019-05-17T13:17:51.355Z,18.31
2019-05-17T13:18:51.383Z,18.78
2019-05-17T13:19:51.377Z,19.24
2019-05-17T13:20:51.387Z,19.64
2019-05-17T13:21:51.390Z,20.10
2019-05-17T13:22:51.427Z,20.31
2019-05-17T13:23:51.419Z,20.58
2019-05-17T13:24:51.455Z,20.85
2019-05-17T13:25:51.451Z,20.97
2019-05-17T13:26:51.451Z,20.73
2019-05-17T13:27:51.488Z,20.44
2019-05-17T13:28:51.480Z,20.37
2019-05-17T13:29:51.669Z,20.34
2019-05-17T13:30:51.513Z,20.37
2019-05-17T13:31:51.591Z,20.34
2019-05-17T13:32:51.544Z,20.12
2019-05-17T13:33:51.562Z,20.26
2019-05-17T13:34:51.547Z,20.68
2019-05-17T13:35:51.572Z,20.91
2019-05-17T13:36:51.623Z,20.98
2019-05-17T13:37:51.597Z,21.24
2019-05-17T13:38:51.612Z,21.28
2019-05-17T13:39:51.628Z,21.06
2019-05-17T13:40:51.635Z,21.05
2019-05-17T13:41:51.640Z,20.93
2019-05-17T13:42:51.667Z,21.09
2019-05-17T13:43:51.669Z,21.24
2019-05-17T13:44:51.680Z,21.31
2019-05-17T13:45:51.697Z,21.85
2019-05-17T13:46:51.703Z,22.38
2019-05-17T13:47:51.714Z,22.85
2019-05-17T13:48:51.737Z,23.26
2019-05-17T13:49:51.748Z,23.54
2019-05-17T13:50:52.304Z,23.79
2019-05-17T13:51:51.776Z,23.75
2019-05-17T13:52:51.794Z,23.42
2019-05-17T13:53:51.794Z,23.23
2019-05-17T13:54:51.819Z,22.78
2019-05-17T13:55:51.835Z,22.26
2019-05-17T13:56:51.859Z,21.98
2019-05-17T13:57:51.869Z,22.12
2019-05-17T13:58:51.875Z,22.48
2019-05-17T13:59:51.883Z,22.74
2019-05-17T14:00:51.950Z,22.75
2019-05-17T14:01:51.933Z,22.84
2019-05-17T14:02:51.921Z,22.76
2019-05-17T14:03:51.984Z,22.76
2019-05-17T14:04:51.975Z,23.09
2019-05-17T14:05:51.985Z,23.09
2019-05-17T14:06:51.989Z,22.63
2019-05-17T14:07:52.007Z,22.20
2019-05-17T14:08:52.017Z,21.83
2019-05-17T14:09:52.027Z,21.51
2019-05-17T14:10:52.060Z,21.18
2019-05-17T14:11:52.059Z,20.88
2019-05-17T14:12:52.082Z,20.50
2019-05-17T14:13:52.102Z,20.41
2019-05-17T14:14:52.106Z,20.25
2019-05-17T14:15:52.114Z,20.12
2019-05-17T14:16:52.130Z,19.95
2019-05-17T14:17:52.125Z,19.76
2019-05-17T14:18:52.135Z,19.71
2019-05-17T14:19:52.148Z,19.53
2019-05-17T14:20:52.269Z,19.32
2019-05-17T14:21:52.247Z,19.24
2019-05-17T14:22:52.206Z,19.30